createdAt,value
2023-05-01T00:02:59.762Z,67.14
2023-05-01T00:06:03.528Z,66.97
2023-05-01T00:09:07.077Z,66.82
2023-05-01T00:12:11.859Z,67.10
2023-05-01T00:15:14.527Z,67.57
2023-05-01T00:18:17.347Z,67.23
2023-05-01T00:21:19.935Z,67.54
2023-05-01T00:24:22.556Z,68.48
2023-05-01T00:27:27.298Z,68.97
2023-05-01T00:30:30.200Z,69.11
2023-05-01T00:33:32.734Z,69.28
2023-05-01T00:36:35.300Z,69.61
2023-05-01T00:39:37.774Z,69.69
2023-05-01T00:42:41.645Z,69.86
2023-05-01T00:45:45.487Z,69.73
2023-05-01T00:48:48.129Z,69.81
2023-05-01T00:51:54.188Z,69.19
2023-05-01T00:54:57.065Z,69.27
2023-05-01T00:58:01.803Z,69.17
2023-05-01T01:01:05.125Z,69.41
2023-05-01T01:04:08.123Z,69.56
2023-05-01T01:07:13.087Z,69.36
2023-05-01T01:10:20.556Z,68.79
2023-05-01T01:13:29.587Z,69.41
2023-05-01T01:16:34.875Z,69.12
2023-05-01T01:19:56.924Z,69.40
2023-05-01T01:23:11.746Z,69.16
2023-05-01T01:26:40.477Z,69.39
2023-05-01T01:30:06.756Z,69.26
2023-05-01T01:33:26.628Z,70.02
2023-05-01T01:36:48.208Z,69.09
2023-05-01T01:39:54.612Z,69.12
2023-05-01T01:43:00.789Z,68.70
2023-05-01T01:46:04.509Z,69.34
2023-05-01T01:49:09.057Z,69.27
2023-05-01T01:52:15.145Z,68.90
2023-05-01T01:55:18.880Z,69.09
2023-05-01T01:58:26.052Z,69.48
2023-05-01T02:01:30.527Z,69.13
2023-05-01T02:04:33.854Z,69.62
2023-05-01T02:07:38.947Z,69.38
2023-05-01T02:10:41.705Z,69.01
2023-05-01T02:13:44.972Z,69.27
2023-05-01T02:16:47.649Z,69.65
2023-05-01T02:19:53.108Z,69.67
2023-05-01T02:22:57.205Z,69.40
2023-05-01T02:26:01.771Z,69.72
2023-05-01T02:29:04.950Z,69.90
2023-05-01T02:32:07.493Z,70.00
2023-05-01T02:35:10.490Z,69.91
2023-05-01T02:38:15.007Z,69.94
2023-05-01T02:41:17.982Z,70.21
2023-05-01T02:44:22.300Z,69.91
2023-05-01T02:47:27.339Z,70.14
2023-05-01T02:50:30.597Z,70.24
2023-05-01T02:53:34.658Z,69.74
2023-05-01T02:56:37.440Z,70.05
2023-05-01T02:59:40.305Z,70.41
2023-05-01T03:02:42.932Z,70.47
2023-05-01T03:05:45.587Z,70.80
2023-05-01T03:08:49.650Z,70.73
2023-05-01T03:11:52.261Z,70.51
2023-05-01T03:14:54.771Z,70.56
2023-05-01T03:17:57.506Z,70.63
2023-05-01T03:21:00.314Z,70.50
2023-05-01T03:24:04.415Z,70.79
2023-05-01T03:27:07.584Z,70.47
2023-05-01T03:30:11.161Z,70.00
2023-05-01T03:33:13.613Z,70.10
2023-05-01T03:36:16.400Z,70.38
2023-05-01T03:39:20.357Z,69.47
2023-05-01T03:42:22.911Z,69.50
2023-05-01T03:45:25.418Z,69.57
2023-05-01T03:48:27.915Z,69.58
2023-05-01T03:51:30.480Z,69.13
2023-05-01T03:54:34.328Z,70.34
2023-05-01T03:57:37.076Z,69.51
2023-05-01T04:00:39.654Z,70.15
2023-05-01T04:03:42.278Z,69.63
2023-05-01T04:06:45.063Z,69.99
2023-05-01T04:09:49.152Z,69.72
2023-05-01T04:12:51.917Z,69.25
2023-05-01T04:15:55.815Z,69.99
2023-05-01T04:18:58.425Z,69.95
2023-05-01T04:22:01.413Z,69.52
2023-05-01T04:25:05.717Z,69.75
2023-05-01T04:28:08.251Z,67.63
2023-05-01T04:31:10.973Z,66.81
2023-05-01T04:34:13.490Z,65.56
2023-05-01T04:37:17.875Z,65.76
2023-05-01T04:40:21.986Z,64.97
2023-05-01T04:43:24.616Z,65.34
2023-05-01T04:46:27.111Z,64.91
2023-05-01T04:49:29.744Z,65.59
2023-05-01T04:52:32.263Z,65.73
2023-05-01T04:55:36.410Z,66.29
2023-05-01T04:58:38.930Z,65.86
2023-05-01T05:01:41.498Z,65.40
2023-05-01T05:04:44.060Z,65.43
2023-05-01T05:07:46.629Z,65.02
2023-05-01T05:10:50.484Z,64.75
2023-05-01T05:13:52.930Z,63.57
2023-05-01T05:16:55.475Z,62.15
2023-05-01T05:19:58.252Z,61.84
2023-05-01T05:23:00.901Z,61.98
2023-05-01T05:26:05.532Z,61.86
2023-05-01T05:29:08.529Z,62.22
2023-05-01T05:32:11.514Z,61.55
2023-05-01T05:35:14.201Z,62.46
2023-05-01T05:38:17.055Z,62.42
2023-05-01T05:41:21.553Z,62.94
2023-05-01T05:44:24.527Z,63.26
2023-05-01T05:47:27.275Z,62.62
2023-05-01T05:50:30.271Z,63.26
2023-05-01T05:53:32.864Z,63.06
2023-05-01T05:56:36.722Z,63.51
2023-05-01T05:59:39.278Z,64.17
2023-05-01T06:02:41.969Z,65.31
2023-05-01T06:05:44.885Z,65.79
2023-05-01T06:08:47.416Z,65.81
2023-05-01T06:11:51.321Z,66.19
2023-05-01T06:14:53.947Z,66.26
2023-05-01T06:17:57.572Z,65.34
2023-05-01T06:21:00.092Z,65.88
2023-05-01T06:24:02.792Z,64.68
2023-05-01T06:27:06.858Z,64.53
2023-05-01T06:30:10.749Z,63.63
2023-05-01T06:33:13.283Z,63.42
2023-05-01T06:36:15.856Z,62.12
2023-05-01T06:39:18.369Z,62.06
2023-05-01T06:42:22.215Z,61.13
2023-05-01T06:45:24.719Z,60.98
2023-05-01T06:48:27.229Z,60.39
2023-05-01T06:51:30.346Z,60.42
2023-05-01T06:54:32.920Z,59.95
2023-05-01T06:57:37.105Z,59.54
2023-05-01T07:00:39.992Z,59.17
2023-05-01T07:03:42.690Z,59.30
2023-05-01T07:06:45.537Z,58.81
2023-05-01T07:09:48.191Z,57.93
2023-05-01T07:12:52.055Z,57.15
2023-05-01T07:15:54.926Z,56.92
2023-05-01T07:18:57.598Z,56.66
2023-05-01T07:22:00.122Z,57.00
2023-05-01T07:25:03.513Z,56.24
2023-05-01T07:28:08.150Z,54.90
2023-05-01T07:31:10.979Z,54.09
2023-05-01T07:34:13.712Z,53.57
2023-05-01T07:37:16.409Z,53.66
2023-05-01T07:40:19.174Z,53.17
2023-05-01T07:43:23.312Z,51.75
2023-05-01T07:46:26.031Z,50.46
2023-05-01T07:49:28.807Z,49.50
2023-05-01T07:52:31.441Z,48.71
2023-05-01T07:55:34.019Z,48.82
2023-05-01T07:58:38.390Z,48.03
2023-05-01T08:01:41.249Z,47.27
2023-05-01T08:04:43.984Z,48.65
2023-05-01T08:07:46.583Z,48.70
2023-05-01T08:10:49.404Z,49.47
2023-05-01T08:13:53.426Z,49.49
2023-05-01T08:16:55.945Z,48.44
2023-05-01T08:19:58.837Z,48.40
2023-05-01T08:23:01.614Z,48.60
2023-05-01T08:26:04.368Z,48.39
2023-05-01T08:29:08.331Z,46.75
2023-05-01T08:32:10.975Z,45.35
2023-05-01T08:35:13.650Z,43.36
2023-05-01T08:38:16.938Z,41.09
2023-05-01T08:41:22.112Z,41.46
2023-05-01T08:44:26.840Z,40.66
2023-05-01T08:47:30.617Z,42.94
2023-05-01T08:50:35.805Z,42.60
2023-05-01T08:53:41.377Z,41.47
2023-05-01T08:56:44.716Z,40.80
2023-05-01T08:59:50.949Z,39.60
2023-05-01T09:02:53.737Z,40.51
2023-05-01T09:05:56.686Z,40.01
2023-05-01T09:08:59.476Z,39.78
2023-05-01T09:12:08.051Z,40.51
2023-05-01T09:15:12.796Z,40.05
2023-05-01T09:18:15.489Z,39.89
2023-05-01T09:21:18.110Z,39.88
2023-05-01T09:24:20.747Z,39.38
2023-05-01T09:27:24.103Z,38.90
2023-05-01T09:30:36.428Z,40.99
2023-05-01T09:33:53.960Z,40.33
2023-05-01T09:36:56.536Z,38.70
2023-05-01T09:40:07.803Z,39.01
2023-05-01T09:43:11.778Z,39.02
2023-05-01T09:46:17.130Z,38.37
2023-05-01T09:49:19.686Z,37.91
2023-05-01T09:52:22.364Z,37.42
2023-05-01T09:55:25.931Z,37.29
2023-05-01T09:58:29.060Z,36.99
2023-05-01T10:01:43.395Z,36.56
2023-05-01T10:04:46.361Z,35.94
2023-05-01T10:07:59.582Z,36.33
2023-05-01T10:11:05.171Z,37.31
2023-05-01T10:14:09.616Z,38.29
2023-05-01T10:17:20.033Z,39.03
2023-05-01T10:20:23.024Z,38.41
2023-05-01T10:23:26.309Z,37.79
2023-05-01T10:26:28.886Z,37.16
2023-05-01T10:29:32.978Z,37.18
2023-05-01T10:32:38.151Z,35.96
2023-05-01T10:35:42.047Z,34.98
2023-05-01T10:38:48.252Z,34.26
2023-05-01T10:42:10.923Z,33.33
2023-05-01T10:45:30.208Z,33.28
2023-05-01T10:48:56.988Z,33.02
2023-05-01T10:52:00.925Z,32.09
2023-05-01T10:55:33.408Z,33.20
2023-05-01T10:58:58.980Z,33.34
2023-05-01T11:02:01.748Z,35.30
2023-05-01T11:05:07.030Z,35.79
2023-05-01T11:08:30.268Z,35.03
2023-05-01T11:11:51.313Z,33.88
2023-05-01T11:15:05.574Z,34.04
2023-05-01T11:18:08.972Z,34.79
2023-05-01T11:21:13.084Z,34.45
2023-05-01T11:24:17.498Z,35.51
2023-05-01T11:27:20.202Z,35.40
2023-05-01T11:30:23.111Z,34.13
2023-05-01T11:33:26.317Z,33.50
2023-05-01T11:36:32.033Z,32.64
2023-05-01T11:39:34.623Z,32.77
2023-05-01T11:42:37.200Z,34.69
2023-05-01T11:45:39.848Z,35.06
2023-05-01T11:48:42.414Z,35.17
2023-05-01T11:51:46.579Z,35.22
2023-05-01T11:54:49.434Z,35.66
2023-05-01T11:57:53.096Z,35.35
2023-05-01T12:00:55.709Z,36.07
2023-05-01T12:03:58.415Z,36.50
2023-05-01T12:07:03.663Z,36.29
2023-05-01T12:10:07.164Z,34.38
2023-05-01T12:13:11.638Z,33.46
2023-05-01T12:16:14.397Z,33.14
2023-05-01T12:19:17.603Z,33.21
2023-05-01T12:22:21.775Z,32.88
2023-05-01T12:25:31.992Z,32.45
2023-05-01T12:28:34.533Z,33.18
2023-05-01T12:31:37.602Z,33.19
2023-05-01T12:34:40.199Z,33.28
2023-05-01T12:37:44.458Z,32.38
2023-05-01T12:40:57.754Z,31.62
2023-05-01T12:44:00.188Z,31.03
2023-05-01T12:47:05.501Z,31.94
2023-05-01T12:50:09.964Z,31.55
2023-05-01T12:53:13.985Z,32.64
2023-05-01T12:56:24.965Z,33.65
2023-05-01T12:59:28.778Z,34.75
2023-05-01T13:02:32.406Z,33.78
2023-05-01T13:05:35.132Z,34.35
2023-05-01T13:08:40.493Z,35.81
2023-05-01T13:11:43.258Z,36.77
2023-05-01T13:14:46.041Z,36.68
2023-05-01T13:17:48.900Z,37.47
2023-05-01T13:20:52.103Z,37.33
2023-05-01T13:23:56.634Z,37.87
2023-05-01T13:27:02.388Z,38.63
2023-05-01T13:30:08.118Z,40.32
2023-05-01T13:33:11.982Z,41.24
2023-05-01T13:36:25.337Z,41.72
2023-05-01T13:39:30.877Z,42.71
2023-05-01T13:42:33.655Z,44.22
2023-05-01T13:45:36.403Z,45.65
2023-05-01T13:48:40.321Z,45.46
2023-05-01T13:51:45.127Z,44.47
2023-05-01T13:54:49.248Z,44.17
2023-05-01T13:57:51.809Z,43.42
2023-05-01T14:00:54.741Z,43.68
2023-05-01T14:03:58.082Z,43.72
2023-05-01T14:07:01.274Z,43.90
2023-05-01T14:10:11.032Z,44.32
2023-05-01T14:13:14.034Z,43.31
2023-05-01T14:16:23.989Z,42.47
2023-05-01T14:19:27.300Z,42.96
2023-05-01T14:22:30.464Z,39.81
2023-05-01T14:25:35.385Z,37.53
2023-05-01T14:28:42.601Z,35.41
2023-05-01T14:31:45.150Z,37.18
2023-05-01T14:34:47.745Z,36.77
2023-05-01T14:37:50.384Z,34.41
2023-05-01T14:40:54.247Z,24.05
2023-05-01T14:43:56.943Z,21.52
2023-05-01T14:47:00.317Z,17.34
2023-05-01T14:50:03.469Z,21.35
2023-05-01T14:53:06.519Z,27.83
2023-05-01T14:56:10.338Z,32.45
2023-05-01T14:59:12.970Z,35.17
2023-05-01T15:02:15.986Z,38.26
2023-05-01T15:05:18.826Z,39.24
2023-05-01T15:08:21.788Z,40.31
2023-05-01T15:11:26.189Z,41.08
2023-05-01T15:14:28.677Z,41.99
2023-05-01T15:17:32.522Z,43.42
2023-05-01T15:20:35.318Z,44.43
2023-05-01T15:23:38.076Z,46.06
2023-05-01T15:26:42.650Z,47.85
2023-05-01T15:29:45.434Z,49.56
2023-05-01T15:32:48.118Z,52.19
2023-05-01T15:35:52.613Z,54.77
2023-05-01T15:38:55.174Z,57.32
2023-05-01T15:41:59.072Z,57.45
2023-05-01T15:45:02.984Z,56.96
2023-05-01T15:48:06.282Z,56.42
2023-05-01T15:51:08.956Z,55.39
2023-05-01T15:54:11.487Z,55.52
2023-05-01T15:57:17.820Z,55.65
2023-05-01T16:00:21.804Z,55.28
2023-05-01T16:03:24.531Z,55.43
2023-05-01T16:06:28.173Z,54.79
2023-05-01T16:09:31.980Z,56.33
2023-05-01T16:12:36.035Z,56.48
2023-05-01T16:15:39.068Z,56.52
2023-05-01T16:18:42.546Z,56.73
2023-05-01T16:21:45.333Z,57.18
2023-05-01T16:24:47.910Z,58.46
2023-05-01T16:27:51.774Z,58.97
2023-05-01T16:30:54.362Z,61.30
2023-05-01T16:33:57.121Z,63.46
2023-05-01T16:37:00.761Z,65.85
2023-05-01T16:40:03.421Z,66.41
2023-05-01T16:43:07.475Z,66.89
2023-05-01T16:46:10.391Z,66.07
2023-05-01T16:49:14.297Z,65.90
2023-05-01T16:52:17.629Z,66.11
2023-05-01T16:55:20.413Z,66.01
2023-05-01T16:58:24.304Z,61.83
2023-05-01T17:01:27.729Z,60.42
2023-05-01T17:04:30.471Z,60.42
2023-05-01T17:07:33.351Z,59.83
2023-05-01T17:10:38.249Z,63.42
2023-05-01T17:13:42.162Z,66.88
2023-05-01T17:16:45.711Z,68.75
2023-05-01T17:19:49.329Z,68.35
2023-05-01T17:22:51.935Z,68.48
2023-05-01T17:25:54.397Z,66.79
2023-05-01T17:28:58.349Z,66.73
2023-05-01T17:32:00.998Z,66.93
2023-05-01T17:35:03.909Z,67.15
2023-05-01T17:38:06.414Z,67.92
2023-05-01T17:41:09.008Z,68.18
2023-05-01T17:44:12.862Z,67.39
2023-05-01T17:47:15.410Z,67.10
2023-05-01T17:50:19.270Z,66.98
2023-05-01T17:53:23.044Z,67.45
2023-05-01T17:56:25.809Z,66.97
2023-05-01T17:59:30.668Z,67.59
2023-05-01T18:02:33.347Z,67.98
2023-05-01T18:05:36.051Z,68.08
2023-05-01T18:08:38.528Z,67.88
2023-05-01T18:11:41.485Z,67.67
2023-05-01T18:14:45.365Z,68.64
2023-05-01T18:17:48.020Z,68.50
2023-05-01T18:20:50.700Z,69.22
2023-05-01T18:23:53.232Z,69.93
2023-05-01T18:26:55.758Z,70.36
2023-05-01T18:30:00.371Z,70.79
2023-05-01T18:33:03.541Z,71.03
2023-05-01T18:36:06.404Z,71.35
2023-05-01T18:39:08.891Z,71.66
2023-05-01T18:42:11.500Z,70.92
2023-05-01T18:45:15.436Z,70.03
2023-05-01T18:48:18.020Z,69.70
2023-05-01T18:51:20.851Z,69.54
2023-05-01T18:54:23.927Z,69.88
2023-05-01T18:57:27.619Z,69.72
2023-05-01T19:00:31.761Z,70.31
2023-05-01T19:03:34.300Z,70.43
2023-05-01T19:06:36.952Z,70.38
2023-05-01T19:09:39.564Z,70.32
2023-05-01T19:12:42.314Z,69.77
2023-05-01T19:15:46.449Z,69.64
2023-05-01T19:18:49.005Z,70.27
2023-05-01T19:21:51.651Z,70.36
2023-05-01T19:24:54.207Z,70.63
2023-05-01T19:27:57.288Z,70.09
2023-05-01T19:31:01.284Z,69.94
2023-05-01T19:34:03.839Z,69.73
2023-05-01T19:37:06.456Z,69.49
2023-05-01T19:40:09.999Z,69.35
2023-05-01T19:43:13.364Z,69.29
2023-05-01T19:46:17.313Z,70.28
2023-05-01T19:49:19.995Z,69.92
2023-05-01T19:52:22.660Z,70.31
2023-05-01T19:55:25.284Z,71.60
2023-05-01T19:58:28.231Z,72.61
2023-05-01T20:01:32.426Z,73.10
2023-05-01T20:04:35.061Z,73.63
2023-05-01T20:07:37.967Z,73.64
2023-05-01T20:10:40.560Z,74.01
2023-05-01T20:13:43.148Z,74.76
2023-05-01T20:16:48.973Z,74.61
2023-05-01T20:19:51.660Z,75.06
2023-05-01T20:23:10.078Z,75.05
2023-05-01T20:26:12.627Z,74.40
2023-05-01T20:29:15.466Z,74.57
2023-05-01T20:32:19.390Z,74.88
2023-05-01T20:35:21.973Z,74.69
2023-05-01T20:38:24.554Z,75.16
2023-05-01T20:41:27.899Z,75.48
2023-05-01T20:44:30.424Z,75.39
2023-05-01T20:47:34.356Z,76.20
2023-05-01T20:50:37.126Z,76.31
2023-05-01T20:53:39.737Z,75.56
2023-05-01T20:56:42.247Z,76.29
2023-05-01T20:59:47.664Z,76.66
2023-05-01T21:02:52.943Z,77.27
2023-05-01T21:05:59.333Z,77.75
2023-05-01T21:09:04.613Z,78.56
2023-05-01T21:12:08.982Z,78.75
2023-05-01T21:15:12.279Z,77.93
2023-05-01T21:18:20.279Z,78.44
2023-05-01T21:21:24.781Z,77.83
2023-05-01T21:24:27.294Z,76.49
2023-05-01T21:27:29.777Z,76.27
2023-05-01T21:30:34.247Z,75.95
2023-05-01T21:33:39.966Z,75.33
2023-05-01T21:36:44.931Z,75.78
2023-05-01T21:39:47.424Z,75.87
2023-05-01T21:42:50.044Z,76.33
2023-05-01T21:45:52.594Z,75.77
2023-05-01T21:48:56.471Z,76.17
2023-05-01T21:52:00.904Z,75.58
2023-05-01T21:55:04.253Z,75.99
2023-05-01T21:58:06.895Z,76.02
2023-05-01T22:01:10.321Z,76.45
2023-05-01T22:04:18.115Z,76.25
2023-05-01T22:07:20.652Z,75.38
2023-05-01T22:10:23.188Z,75.39
2023-05-01T22:13:31.958Z,75.59
2023-05-01T22:16:34.795Z,75.21
2023-05-01T22:19:38.879Z,74.15
2023-05-01T22:22:42.899Z,74.80
2023-05-01T22:25:45.596Z,74.72
2023-05-01T22:28:49.665Z,75.00
2023-05-01T22:31:52.201Z,75.06
2023-05-01T22:34:56.365Z,75.93
2023-05-01T22:37:58.920Z,75.70
2023-05-01T22:41:01.490Z,75.89
2023-05-01T22:44:03.960Z,76.23
2023-05-01T22:47:07.102Z,75.63
2023-05-01T22:50:11.946Z,75.72
2023-05-01T22:53:14.448Z,76.14
2023-05-01T22:56:17.058Z,76.96
2023-05-01T22:59:19.981Z,78.98
2023-05-01T23:02:22.769Z,79.58
2023-05-01T23:05:27.016Z,80.06
2023-05-01T23:08:29.511Z,80.80
2023-05-01T23:11:33.241Z,81.55
2023-05-01T23:14:37.886Z,81.94
2023-05-01T23:17:40.849Z,81.85
2023-05-01T23:20:44.910Z,81.56
2023-05-01T23:23:48.089Z,82.56
2023-05-01T23:26:50.625Z,82.20
2023-05-01T23:29:56.462Z,81.68
2023-05-01T23:32:59.665Z,81.90
2023-05-01T23:36:03.942Z,82.48
2023-05-01T23:39:08.498Z,81.84
2023-05-01T23:42:11.119Z,82.09
2023-05-01T23:45:13.631Z,82.57
2023-05-01T23:48:16.235Z,82.78
2023-05-01T23:51:20.173Z,83.22
2023-05-01T23:54:22.715Z,82.73
2023-05-01T23:57:25.422Z,82.78
